sensor_id;sensor_type;location;lat;lon;timestamp;P1;durP1;ratioP1;P2;durP2;ratioP2
79499;SDS011;76397;53.172;18.140;2024-03-25T00:01:06;16.80;;;7.00;;
79499;SDS011;76397;53.172;18.140;2024-03-25T00:03:39;19.70;;;7.80;;
79499;SDS011;76397;53.172;18.140;2024-03-25T00:06:06;14.60;;;7.70;;
79499;SDS011;76397;53.172;18.140;2024-03-25T00:08:33;13.80;;;6.90;;
79499;SDS011;76397;53.172;18.140;2024-03-25T00:10:59;15.60;;;7.30;;
79499;SDS011;76397;53.172;18.140;2024-03-25T00:13:26;16.00;;;7.70;;
79499;SDS011;76397;53.172;18.140;2024-03-25T00:15:53;15.00;;;7.30;;
79499;SDS011;76397;53.172;18.140;2024-03-25T00:18:19;14.60;;;8.00;;
79499;SDS011;76397;53.172;18.140;2024-03-25T00:20:46;14.80;;;8.80;;
79499;SDS011;76397;53.172;18.140;2024-03-25T00:23:13;17.20;;;8.00;;
79499;SDS011;76397;53.172;18.140;2024-03-25T00:25:39;15.00;;;7.80;;
79499;SDS011;76397;53.172;18.140;2024-03-25T00:28:06;15.40;;;8.20;;
79499;SDS011;76397;53.172;18.140;2024-03-25T00:30:33;15.20;;;7.80;;
79499;SDS011;76397;53.172;18.140;2024-03-25T00:33:00;15.10;;;8.00;;
79499;SDS011;76397;53.172;18.140;2024-03-25T00:35:27;15.30;;;8.30;;
79499;SDS011;76397;53.172;18.140;2024-03-25T00:37:53;15.50;;;8.10;;
79499;SDS011;76397;53.172;18.140;2024-03-25T00:40:20;16.40;;;7.70;;
79499;SDS011;76397;53.172;18.140;2024-03-25T00:42:46;15.60;;;8.10;;
79499;SDS011;76397;53.172;18.140;2024-03-25T00:45:14;15.40;;;7.10;;
79499;SDS011;76397;53.172;18.140;2024-03-25T00:47:40;14.30;;;7.90;;
79499;SDS011;76397;53.172;18.140;2024-03-25T00:50:08;14.20;;;7.30;;
79499;SDS011;76397;53.172;18.140;2024-03-25T00:52:35;16.60;;;7.50;;
79499;SDS011;76397;53.172;18.140;2024-03-25T00:55:03;16.60;;;8.00;;
79499;SDS011;76397;53.172;18.140;2024-03-25T00:57:31;15.40;;;7.70;;
79499;SDS011;76397;53.172;18.140;2024-03-25T00:59:59;15.80;;;8.00;;
79499;SDS011;76397;53.172;18.140;2024-03-25T01:02:25;14.30;;;7.30;;
79499;SDS011;76397;53.172;18.140;2024-03-25T01:04:53;15.00;;;7.40;;
79499;SDS011;76397;53.172;18.140;2024-03-25T01:07:23;15.90;;;7.20;;
79499;SDS011;76397;53.172;18.140;2024-03-25T01:09:50;15.00;;;6.90;;
79499;SDS011;76397;53.172;18.140;2024-03-25T01:12:16;14.90;;;7.80;;
79499;SDS011;76397;53.172;18.140;2024-03-25T01:14:43;14.20;;;7.50;;
79499;SDS011;76397;53.172;18.140;2024-03-25T01:17:10;13.00;;;6.60;;
79499;SDS011;76397;53.172;18.140;2024-03-25T01:19:36;14.80;;;6.30;;
79499;SDS011;76397;53.172;18.140;2024-03-25T01:22:03;13.90;;;7.30;;
79499;SDS011;76397;53.172;18.140;2024-03-25T01:24:31;12.60;;;6.70;;
79499;SDS011;76397;53.172;18.140;2024-03-25T01:26:57;16.60;;;7.20;;
79499;SDS011;76397;53.172;18.140;2024-03-25T01:29:24;16.00;;;8.20;;
79499;SDS011;76397;53.172;18.140;2024-03-25T01:31:51;17.00;;;9.20;;
79499;SDS011;76397;53.172;18.140;2024-03-25T01:34:17;18.50;;;9.70;;
79499;SDS011;76397;53.172;18.140;2024-03-25T01:36:44;18.00;;;9.30;;
79499;SDS011;76397;53.172;18.140;2024-03-25T01:39:11;19.90;;;8.40;;
79499;SDS011;76397;53.172;18.140;2024-03-25T01:41:37;17.50;;;8.70;;
79499;SDS011;76397;53.172;18.140;2024-03-25T01:44:05;18.90;;;9.20;;
79499;SDS011;76397;53.172;18.140;2024-03-25T01:46:31;17.20;;;8.30;;
79499;SDS011;76397;53.172;18.140;2024-03-25T01:48:58;18.70;;;8.80;;
79499;SDS011;76397;53.172;18.140;2024-03-25T01:51:25;17.30;;;8.30;;
79499;SDS011;76397;53.172;18.140;2024-03-25T01:53:52;18.10;;;8.60;;
79499;SDS011;76397;53.172;18.140;2024-03-25T01:56:23;16.30;;;8.30;;
79499;SDS011;76397;53.172;18.140;2024-03-25T01:58:51;16.90;;;8.00;;
79499;SDS011;76397;53.172;18.140;2024-03-25T02:01:18;18.30;;;8.10;;
79499;SDS011;76397;53.172;18.140;2024-03-25T02:03:47;14.00;;;7.80;;
79499;SDS011;76397;53.172;18.140;2024-03-25T02:06:17;15.60;;;8.10;;
79499;SDS011;76397;53.172;18.140;2024-03-25T02:08:44;13.80;;;7.10;;
79499;SDS011;76397;53.172;18.140;2024-03-25T02:11:11;18.00;;;7.40;;
79499;SDS011;76397;53.172;18.140;2024-03-25T02:13:39;24.10;;;8.00;;
79499;SDS011;76397;53.172;18.140;2024-03-25T02:16:06;14.40;;;7.60;;
79499;SDS011;76397;53.172;18.140;2024-03-25T02:18:33;18.00;;;8.30;;
79499;SDS011;76397;53.172;18.140;2024-03-25T02:21:00;20.80;;;9.40;;
79499;SDS011;76397;53.172;18.140;2024-03-25T02:23:27;16.90;;;8.80;;
79499;SDS011;76397;53.172;18.140;2024-03-25T02:25:55;15.70;;;8.80;;
79499;SDS011;76397;53.172;18.140;2024-03-25T02:28:21;16.60;;;8.00;;
79499;SDS011;76397;53.172;18.140;2024-03-25T02:30:48;15.30;;;7.50;;
79499;SDS011;76397;53.172;18.140;2024-03-25T02:33:14;16.00;;;7.80;;
79499;SDS011;76397;53.172;18.140;2024-03-25T02:35:42;16.30;;;8.20;;
79499;SDS011;76397;53.172;18.140;2024-03-25T02:38:10;17.30;;;7.70;;
79499;SDS011;76397;53.172;18.140;2024-03-25T02:40:37;16.50;;;7.50;;
79499;SDS011;76397;53.172;18.140;2024-03-25T02:43:05;16.00;;;7.80;;
79499;SDS011;76397;53.172;18.140;2024-03-25T02:45:33;15.60;;;7.70;;
79499;SDS011;76397;53.172;18.140;2024-03-25T02:48:00;17.80;;;7.90;;
79499;SDS011;76397;53.172;18.140;2024-03-25T02:50:27;17.50;;;7.80;;
79499;SDS011;76397;53.172;18.140;2024-03-25T02:52:54;17.40;;;7.10;;
79499;SDS011;76397;53.172;18.140;2024-03-25T02:55:20;17.80;;;8.40;;
79499;SDS011;76397;53.172;18.140;2024-03-25T02:57:47;18.80;;;7.80;;
79499;SDS011;76397;53.172;18.140;2024-03-25T03:00:14;14.90;;;6.80;;
79499;SDS011;76397;53.172;18.140;2024-03-25T03:02:40;15.60;;;6.80;;
79499;SDS011;76397;53.172;18.140;2024-03-25T03:05:07;15.50;;;6.70;;
79499;SDS011;76397;53.172;18.140;2024-03-25T03:07:34;18.70;;;8.90;;
79499;SDS011;76397;53.172;18.140;2024-03-25T03:10:01;21.20;;;10.80;;
79499;SDS011;76397;53.172;18.140;2024-03-25T03:12:28;25.40;;;11.60;;
79499;SDS011;76397;53.172;18.140;2024-03-25T03:14:54;26.20;;;11.10;;
79499;SDS011;76397;53.172;18.140;2024-03-25T03:17:21;18.90;;;10.20;;
79499;SDS011;76397;53.172;18.140;2024-03-25T03:19:48;19.60;;;9.30;;
79499;SDS011;76397;53.172;18.140;2024-03-25T03:22:14;19.50;;;8.10;;
79499;SDS011;76397;53.172;18.140;2024-03-25T03:24:41;18.40;;;8.80;;
79499;SDS011;76397;53.172;18.140;2024-03-25T03:27:08;17.80;;;8.30;;
79499;SDS011;76397;53.172;18.140;2024-03-25T03:29:34;16.70;;;7.60;;
79499;SDS011;76397;53.172;18.140;2024-03-25T03:32:01;15.20;;;7.20;;
79499;SDS011;76397;53.172;18.140;2024-03-25T03:34:28;15.50;;;7.50;;
79499;SDS011;76397;53.172;18.140;2024-03-25T03:36:55;16.60;;;7.50;;
79499;SDS011;76397;53.172;18.140;2024-03-25T03:39:21;17.20;;;8.10;;
79499;SDS011;76397;53.172;18.140;2024-03-25T03:41:48;15.20;;;7.70;;
79499;SDS011;76397;53.172;18.140;2024-03-25T03:44:14;18.70;;;9.70;;
79499;SDS011;76397;53.172;18.140;2024-03-25T03:46:41;22.40;;;10.10;;
79499;SDS011;76397;53.172;18.140;2024-03-25T03:49:08;19.90;;;9.70;;
79499;SDS011;76397;53.172;18.140;2024-03-25T03:51:35;19.40;;;9.80;;
79499;SDS011;76397;53.172;18.140;2024-03-25T03:54:01;19.00;;;9.40;;
79499;SDS011;76397;53.172;18.140;2024-03-25T03:56:28;19.60;;;9.00;;
79499;SDS011;76397;53.172;18.140;2024-03-25T03:58:54;18.30;;;8.60;;
79499;SDS011;76397;53.172;18.140;2024-03-25T04:01:21;18.60;;;9.20;;
79499;SDS011;76397;53.172;18.140;2024-03-25T04:03:48;20.00;;;8.90;;
79499;SDS011;76397;53.172;18.140;2024-03-25T04:06:15;18.90;;;9.00;;
79499;SDS011;76397;53.172;18.140;2024-03-25T04:08:42;16.30;;;7.90;;
79499;SDS011;76397;53.172;18.140;2024-03-25T04:11:10;17.60;;;7.40;;
79499;SDS011;76397;53.172;18.140;2024-03-25T04:13:37;16.50;;;8.60;;
79499;SDS011;76397;53.172;18.140;2024-03-25T04:16:05;19.60;;;9.80;;
79499;SDS011;76397;53.172;18.140;2024-03-25T04:18:33;19.00;;;8.90;;
79499;SDS011;76397;53.172;18.140;2024-03-25T04:21:00;23.80;;;10.30;;
79499;SDS011;76397;53.172;18.140;2024-03-25T04:23:27;19.70;;;10.10;;
79499;SDS011;76397;53.172;18.140;2024-03-25T04:25:54;19.30;;;9.80;;
79499;SDS011;76397;53.172;18.140;2024-03-25T04:28:21;21.10;;;10.10;;
79499;SDS011;76397;53.172;18.140;2024-03-25T04:30:53;18.00;;;9.40;;
79499;SDS011;76397;53.172;18.140;2024-03-25T04:33:20;15.50;;;8.20;;
79499;SDS011;76397;53.172;18.140;2024-03-25T04:35:47;17.90;;;8.70;;
79499;SDS011;76397;53.172;18.140;2024-03-25T04:38:16;19.60;;;9.40;;
79499;SDS011;76397;53.172;18.140;2024-03-25T04:40:43;19.40;;;9.10;;
79499;SDS011;76397;53.172;18.140;2024-03-25T04:43:13;19.70;;;9.30;;
79499;SDS011;76397;53.172;18.140;2024-03-25T04:45:39;24.20;;;10.60;;
79499;SDS011;76397;53.172;18.140;2024-03-25T04:48:07;25.40;;;12.30;;
79499;SDS011;76397;53.172;18.140;2024-03-25T04:50:36;34.30;;;14.90;;
79499;SDS011;76397;53.172;18.140;2024-03-25T04:53:03;30.30;;;14.00;;
79499;SDS011;76397;53.172;18.140;2024-03-25T04:55:30;30.30;;;13.70;;
79499;SDS011;76397;53.172;18.140;2024-03-25T04:57:56;30.20;;;13.90;;
79499;SDS011;76397;53.172;18.140;2024-03-25T05:00:23;29.10;;;13.80;;
79499;SDS011;76397;53.172;18.140;2024-03-25T05:02:50;33.70;;;14.20;;
79499;SDS011;76397;53.172;18.140;2024-03-25T05:05:16;29.80;;;13.00;;
79499;SDS011;76397;53.172;18.140;2024-03-25T05:07:43;29.70;;;14.20;;
79499;SDS011;76397;53.172;18.140;2024-03-25T05:10:10;27.30;;;12.30;;
79499;SDS011;76397;53.172;18.140;2024-03-25T05:12:38;24.90;;;12.80;;
79499;SDS011;76397;53.172;18.140;2024-03-25T05:15:05;23.60;;;12.20;;
79499;SDS011;76397;53.172;18.140;2024-03-25T05:17:32;23.40;;;12.40;;
79499;SDS011;76397;53.172;18.140;2024-03-25T05:19:59;21.70;;;11.20;;
79499;SDS011;76397;53.172;18.140;2024-03-25T05:22:25;23.10;;;11.60;;
79499;SDS011;76397;53.172;18.140;2024-03-25T05:24:52;20.60;;;11.70;;
79499;SDS011;76397;53.172;18.140;2024-03-25T05:27:18;20.30;;;11.10;;
79499;SDS011;76397;53.172;18.140;2024-03-25T05:29:45;21.80;;;11.30;;
79499;SDS011;76397;53.172;18.140;2024-03-25T05:32:11;20.20;;;10.00;;
79499;SDS011;76397;53.172;18.140;2024-03-25T05:34:38;18.50;;;9.90;;
79499;SDS011;76397;53.172;18.140;2024-03-25T05:37:05;21.30;;;10.30;;
79499;SDS011;76397;53.172;18.140;2024-03-25T05:39:31;22.60;;;11.00;;
79499;SDS011;76397;53.172;18.140;2024-03-25T05:41:58;20.40;;;10.50;;
79499;SDS011;76397;53.172;18.140;2024-03-25T05:44:24;21.90;;;11.10;;
79499;SDS011;76397;53.172;18.140;2024-03-25T05:46:51;20.20;;;10.60;;
79499;SDS011;76397;53.172;18.140;2024-03-25T05:49:18;22.00;;;11.20;;
79499;SDS011;76397;53.172;18.140;2024-03-25T05:51:44;23.90;;;11.30;;
79499;SDS011;76397;53.172;18.140;2024-03-25T05:54:11;21.80;;;11.30;;
79499;SDS011;76397;53.172;18.140;2024-03-25T05:56:38;19.50;;;10.30;;
79499;SDS011;76397;53.172;18.140;2024-03-25T05:59:04;22.50;;;10.20;;
79499;SDS011;76397;53.172;18.140;2024-03-25T06:01:31;20.10;;;8.80;;
79499;SDS011;76397;53.172;18.140;2024-03-25T06:03:59;16.40;;;8.90;;
79499;SDS011;76397;53.172;18.140;2024-03-25T06:06:26;18.10;;;9.20;;
79499;SDS011;76397;53.172;18.140;2024-03-25T06:08:53;16.70;;;9.10;;
79499;SDS011;76397;53.172;18.140;2024-03-25T06:11:19;19.70;;;10.70;;
79499;SDS011;76397;53.172;18.140;2024-03-25T06:13:47;20.20;;;9.80;;
79499;SDS011;76397;53.172;18.140;2024-03-25T06:16:14;17.90;;;8.70;;
79499;SDS011;76397;53.172;18.140;2024-03-25T06:18:41;17.60;;;9.10;;
79499;SDS011;76397;53.172;18.140;2024-03-25T06:21:07;22.80;;;14.80;;
79499;SDS011;76397;53.172;18.140;2024-03-25T06:23:34;18.00;;;9.20;;
79499;SDS011;76397;53.172;18.140;2024-03-25T06:26:02;18.80;;;8.10;;
79499;SDS011;76397;53.172;18.140;2024-03-25T06:28:29;17.10;;;8.60;;
79499;SDS011;76397;53.172;18.140;2024-03-25T06:30:55;17.30;;;8.70;;
79499;SDS011;76397;53.172;18.140;2024-03-25T06:33:40;21.10;;;8.90;;
79499;SDS011;76397;53.172;18.140;2024-03-25T06:36:26;16.30;;;8.10;;
79499;SDS011;76397;53.172;18.140;2024-03-25T06:38:53;17.50;;;8.80;;
79499;SDS011;76397;53.172;18.140;2024-03-25T06:41:20;17.80;;;8.60;;
79499;SDS011;76397;53.172;18.140;2024-03-25T06:43:47;17.80;;;9.00;;
79499;SDS011;76397;53.172;18.140;2024-03-25T06:46:14;18.90;;;8.60;;
79499;SDS011;76397;53.172;18.140;2024-03-25T06:48:40;17.50;;;8.90;;
79499;SDS011;76397;53.172;18.140;2024-03-25T06:51:07;17.30;;;8.50;;
79499;SDS011;76397;53.172;18.140;2024-03-25T06:53:34;15.10;;;8.10;;
79499;SDS011;76397;53.172;18.140;2024-03-25T06:56:01;15.40;;;9.00;;
79499;SDS011;76397;53.172;18.140;2024-03-25T06:58:28;17.20;;;8.30;;
79499;SDS011;76397;53.172;18.140;2024-03-25T07:00:56;17.30;;;8.60;;
79499;SDS011;76397;53.172;18.140;2024-03-25T07:03:23;17.70;;;9.20;;
79499;SDS011;76397;53.172;18.140;2024-03-25T07:05:51;18.70;;;9.70;;
79499;SDS011;76397;53.172;18.140;2024-03-25T07:08:22;19.10;;;9.50;;
79499;SDS011;76397;53.172;18.140;2024-03-25T07:10:49;19.00;;;9.10;;
79499;SDS011;76397;53.172;18.140;2024-03-25T07:13:16;19.40;;;9.70;;
79499;SDS011;76397;53.172;18.140;2024-03-25T07:15:43;16.40;;;9.10;;
79499;SDS011;76397;53.172;18.140;2024-03-25T07:18:10;17.20;;;9.20;;
79499;SDS011;76397;53.172;18.140;2024-03-25T07:20:39;21.00;;;10.20;;
79499;SDS011;76397;53.172;18.140;2024-03-25T07:23:07;16.70;;;9.20;;
79499;SDS011;76397;53.172;18.140;2024-03-25T07:25:34;18.50;;;10.70;;
79499;SDS011;76397;53.172;18.140;2024-03-25T07:28:03;26.00;;;11.00;;
79499;SDS011;76397;53.172;18.140;2024-03-25T07:30:30;26.60;;;11.00;;
79499;SDS011;76397;53.172;18.140;2024-03-25T07:32:58;26.30;;;11.10;;
79499;SDS011;76397;53.172;18.140;2024-03-25T07:35:26;26.00;;;10.90;;
79499;SDS011;76397;53.172;18.140;2024-03-25T07:37:53;30.50;;;11.90;;
79499;SDS011;76397;53.172;18.140;2024-03-25T07:40:20;47.20;;;12.90;;
79499;SDS011;76397;53.172;18.140;2024-03-25T07:42:49;26.80;;;11.90;;
79499;SDS011;76397;53.172;18.140;2024-03-25T07:45:16;18.80;;;9.40;;
79499;SDS011;76397;53.172;18.140;2024-03-25T07:47:43;14.70;;;8.20;;
79499;SDS011;76397;53.172;18.140;2024-03-25T07:50:10;15.60;;;7.10;;
79499;SDS011;76397;53.172;18.140;2024-03-25T07:52:36;25.80;;;10.80;;
79499;SDS011;76397;53.172;18.140;2024-03-25T07:55:07;15.90;;;8.50;;
79499;SDS011;76397;53.172;18.140;2024-03-25T07:57:35;19.20;;;9.40;;
79499;SDS011;76397;53.172;18.140;2024-03-25T08:00:03;15.50;;;7.80;;
79499;SDS011;76397;53.172;18.140;2024-03-25T08:02:38;14.10;;;7.70;;
79499;SDS011;76397;53.172;18.140;2024-03-25T08:05:06;11.20;;;6.80;;
79499;SDS011;76397;53.172;18.140;2024-03-25T08:07:32;11.80;;;6.00;;
79499;SDS011;76397;53.172;18.140;2024-03-25T08:09:59;15.50;;;7.50;;
79499;SDS011;76397;53.172;18.140;2024-03-25T08:12:26;17.30;;;7.10;;
79499;SDS011;76397;53.172;18.140;2024-03-25T08:14:53;12.50;;;5.80;;
79499;SDS011;76397;53.172;18.140;2024-03-25T08:17:20;12.00;;;5.80;;
79499;SDS011;76397;53.172;18.140;2024-03-25T08:19:47;14.90;;;7.00;;
79499;SDS011;76397;53.172;18.140;2024-03-25T08:22:14;18.20;;;7.70;;
79499;SDS011;76397;53.172;18.140;2024-03-25T08:24:41;12.80;;;5.90;;
79499;SDS011;76397;53.172;18.140;2024-03-25T08:27:07;11.80;;;6.00;;
79499;SDS011;76397;53.172;18.140;2024-03-25T08:29:34;11.80;;;5.70;;
79499;SDS011;76397;53.172;18.140;2024-03-25T08:32:01;14.00;;;6.30;;
79499;SDS011;76397;53.172;18.140;2024-03-25T08:34:27;8.20;;;4.90;;
79499;SDS011;76397;53.172;18.140;2024-03-25T08:36:54;8.20;;;4.40;;
79499;SDS011;76397;53.172;18.140;2024-03-25T08:39:21;8.60;;;4.60;;
79499;SDS011;76397;53.172;18.140;2024-03-25T08:41:47;7.20;;;4.20;;
79499;SDS011;76397;53.172;18.140;2024-03-25T08:44:14;6.50;;;3.80;;
79499;SDS011;76397;53.172;18.140;2024-03-25T08:46:41;7.30;;;3.40;;
79499;SDS011;76397;53.172;18.140;2024-03-25T08:49:07;7.40;;;3.30;;
79499;SDS011;76397;53.172;18.140;2024-03-25T08:51:34;5.90;;;3.20;;
79499;SDS011;76397;53.172;18.140;2024-03-25T08:54:00;6.10;;;2.80;;
79499;SDS011;76397;53.172;18.140;2024-03-25T08:56:27;5.40;;;2.70;;
79499;SDS011;76397;53.172;18.140;2024-03-25T08:58:54;4.50;;;2.30;;
79499;SDS011;76397;53.172;18.140;2024-03-25T09:01:21;5.50;;;3.00;;
79499;SDS011;76397;53.172;18.140;2024-03-25T09:03:50;5.50;;;2.90;;
79499;SDS011;76397;53.172;18.140;2024-03-25T09:06:17;6.10;;;3.00;;
79499;SDS011;76397;53.172;18.140;2024-03-25T09:08:43;9.20;;;4.90;;
79499;SDS011;76397;53.172;18.140;2024-03-25T09:11:29;4.90;;;2.90;;
79499;SDS011;76397;53.172;18.140;2024-03-25T09:13:56;5.80;;;2.70;;
79499;SDS011;76397;53.172;18.140;2024-03-25T09:16:22;6.20;;;2.50;;
79499;SDS011;76397;53.172;18.140;2024-03-25T09:18:49;5.50;;;2.70;;
79499;SDS011;76397;53.172;18.140;2024-03-25T09:21:16;5.80;;;3.20;;
79499;SDS011;76397;53.172;18.140;2024-03-25T09:23:42;5.10;;;2.90;;
79499;SDS011;76397;53.172;18.140;2024-03-25T09:26:09;9.30;;;4.00;;
79499;SDS011;76397;53.172;18.140;2024-03-25T09:28:37;5.90;;;2.80;;
79499;SDS011;76397;53.172;18.140;2024-03-25T09:31:03;5.10;;;2.70;;
79499;SDS011;76397;53.172;18.140;2024-03-25T09:33:32;5.80;;;2.60;;
79499;SDS011;76397;53.172;18.140;2024-03-25T09:36:00;6.30;;;3.20;;
79499;SDS011;76397;53.172;18.140;2024-03-25T09:38:27;6.40;;;3.10;;
79499;SDS011;76397;53.172;18.140;2024-03-25T09:40:55;4.80;;;2.60;;
79499;SDS011;76397;53.172;18.140;2024-03-25T09:43:28;5.20;;;2.90;;
79499;SDS011;76397;53.172;18.140;2024-03-25T09:46:00;6.20;;;2.90;;
79499;SDS011;76397;53.172;18.140;2024-03-25T09:48:28;6.50;;;3.30;;
79499;SDS011;76397;53.172;18.140;2024-03-25T09:50:56;9.10;;;3.90;;
79499;SDS011;76397;53.172;18.140;2024-03-25T09:53:23;10.00;;;4.20;;
79499;SDS011;76397;53.172;18.140;2024-03-25T09:55:49;8.80;;;4.60;;
79499;SDS011;76397;53.172;18.140;2024-03-25T09:58:18;8.30;;;4.00;;
79499;SDS011;76397;53.172;18.140;2024-03-25T10:00:46;8.10;;;4.20;;
79499;SDS011;76397;53.172;18.140;2024-03-25T10:03:13;6.40;;;3.40;;
79499;SDS011;76397;53.172;18.140;2024-03-25T10:05:41;6.90;;;4.00;;
79499;SDS011;76397;53.172;18.140;2024-03-25T10:08:08;7.00;;;3.70;;
79499;SDS011;76397;53.172;18.140;2024-03-25T10:10:35;7.30;;;3.50;;
79499;SDS011;76397;53.172;18.140;2024-03-25T10:13:05;6.60;;;3.90;;
79499;SDS011;76397;53.172;18.140;2024-03-25T10:15:33;7.80;;;4.20;;
79499;SDS011;76397;53.172;18.140;2024-03-25T10:18:00;7.10;;;3.60;;
79499;SDS011;76397;53.172;18.140;2024-03-25T10:20:26;7.10;;;3.70;;
79499;SDS011;76397;53.172;18.140;2024-03-25T10:22:53;7.50;;;4.20;;
79499;SDS011;76397;53.172;18.140;2024-03-25T10:25:28;8.20;;;4.40;;
79499;SDS011;76397;53.172;18.140;2024-03-25T10:30:27;7.30;;;3.50;;
79499;SDS011;76397;53.172;18.140;2024-03-25T10:32:59;7.90;;;4.30;;
79499;SDS011;76397;53.172;18.140;2024-03-25T10:35:31;7.60;;;4.00;;
79499;SDS011;76397;53.172;18.140;2024-03-25T10:38:02;7.00;;;4.40;;
79499;SDS011;76397;53.172;18.140;2024-03-25T10:40:35;7.10;;;4.50;;
79499;SDS011;76397;53.172;18.140;2024-03-25T10:43:08;7.40;;;3.40;;
79499;SDS011;76397;53.172;18.140;2024-03-25T10:45:43;7.20;;;4.00;;
79499;SDS011;76397;53.172;18.140;2024-03-25T10:48:19;6.40;;;3.70;;
79499;SDS011;76397;53.172;18.140;2024-03-25T10:50:58;6.20;;;3.60;;
79499;SDS011;76397;53.172;18.140;2024-03-25T10:53:27;5.20;;;2.40;;
79499;SDS011;76397;53.172;18.140;2024-03-25T10:55:55;5.70;;;2.70;;
79499;SDS011;76397;53.172;18.140;2024-03-25T10:58:23;5.20;;;2.60;;
79499;SDS011;76397;53.172;18.140;2024-03-25T11:00:54;6.40;;;3.30;;
79499;SDS011;76397;53.172;18.140;2024-03-25T11:03:23;6.20;;;3.40;;
79499;SDS011;76397;53.172;18.140;2024-03-25T11:05:52;5.10;;;2.60;;
79499;SDS011;76397;53.172;18.140;2024-03-25T11:08:20;4.70;;;2.50;;
79499;SDS011;76397;53.172;18.140;2024-03-25T11:10:47;5.40;;;2.20;;
79499;SDS011;76397;53.172;18.140;2024-03-25T11:13:16;4.80;;;2.20;;
79499;SDS011;76397;53.172;18.140;2024-03-25T11:15:45;4.20;;;1.80;;
79499;SDS011;76397;53.172;18.140;2024-03-25T11:18:15;4.20;;;1.80;;
79499;SDS011;76397;53.172;18.140;2024-03-25T11:20:44;4.70;;;2.00;;
79499;SDS011;76397;53.172;18.140;2024-03-25T11:23:12;5.20;;;2.00;;
79499;SDS011;76397;53.172;18.140;2024-03-25T11:25:41;4.20;;;1.50;;
79499;SDS011;76397;53.172;18.140;2024-03-25T11:28:09;4.10;;;1.80;;
79499;SDS011;76397;53.172;18.140;2024-03-25T11:30:36;4.80;;;2.10;;
79499;SDS011;76397;53.172;18.140;2024-03-25T11:33:04;4.50;;;2.10;;
79499;SDS011;76397;53.172;18.140;2024-03-25T11:35:38;5.40;;;2.20;;
79499;SDS011;76397;53.172;18.140;2024-03-25T11:38:05;6.00;;;2.40;;
79499;SDS011;76397;53.172;18.140;2024-03-25T11:40:32;4.90;;;1.70;;
79499;SDS011;76397;53.172;18.140;2024-03-25T11:42:59;5.10;;;1.90;;
79499;SDS011;76397;53.172;18.140;2024-03-25T11:45:25;4.30;;;2.10;;
79499;SDS011;76397;53.172;18.140;2024-03-25T11:47:52;5.40;;;1.90;;
79499;SDS011;76397;53.172;18.140;2024-03-25T11:50:19;4.50;;;1.80;;
79499;SDS011;76397;53.172;18.140;2024-03-25T11:52:46;4.10;;;1.80;;
79499;SDS011;76397;53.172;18.140;2024-03-25T11:55:17;4.80;;;2.10;;
79499;SDS011;76397;53.172;18.140;2024-03-25T11:57:44;4.80;;;1.90;;
79499;SDS011;76397;53.172;18.140;2024-03-25T12:00:11;4.40;;;1.60;;
79499;SDS011;76397;53.172;18.140;2024-03-25T12:02:45;3.30;;;1.30;;
79499;SDS011;76397;53.172;18.140;2024-03-25T12:05:14;4.50;;;1.60;;
79499;SDS011;76397;53.172;18.140;2024-03-25T12:07:40;3.10;;;0.90;;
79499;SDS011;76397;53.172;18.140;2024-03-25T12:10:07;4.50;;;1.10;;
79499;SDS011;76397;53.172;18.140;2024-03-25T12:12:55;4.60;;;1.30;;
79499;SDS011;76397;53.172;18.140;2024-03-25T12:15:22;5.10;;;1.40;;
79499;SDS011;76397;53.172;18.140;2024-03-25T12:17:49;3.50;;;1.10;;
79499;SDS011;76397;53.172;18.140;2024-03-25T12:20:19;6.00;;;1.90;;
79499;SDS011;76397;53.172;18.140;2024-03-25T12:22:48;4.80;;;1.80;;
79499;SDS011;76397;53.172;18.140;2024-03-25T12:25:15;5.00;;;1.90;;
79499;SDS011;76397;53.172;18.140;2024-03-25T12:27:46;5.30;;;1.60;;
79499;SDS011;76397;53.172;18.140;2024-03-25T12:30:14;5.90;;;2.10;;
79499;SDS011;76397;53.172;18.140;2024-03-25T12:32:45;3.70;;;1.50;;
79499;SDS011;76397;53.172;18.140;2024-03-25T12:35:14;3.90;;;1.40;;
79499;SDS011;76397;53.172;18.140;2024-03-25T12:37:46;4.10;;;1.60;;
79499;SDS011;76397;53.172;18.140;2024-03-25T12:40:28;4.30;;;1.20;;
79499;SDS011;76397;53.172;18.140;2024-03-25T12:42:58;4.30;;;1.50;;
79499;SDS011;76397;53.172;18.140;2024-03-25T12:45:25;4.00;;;1.50;;
79499;SDS011;76397;53.172;18.140;2024-03-25T12:47:51;4.30;;;1.90;;
79499;SDS011;76397;53.172;18.140;2024-03-25T12:50:19;4.30;;;1.90;;
79499;SDS011;76397;53.172;18.140;2024-03-25T13:00:20;4.20;;;1.90;;
79499;SDS011;76397;53.172;18.140;2024-03-25T13:02:47;3.50;;;1.40;;
79499;SDS011;76397;53.172;18.140;2024-03-25T13:05:15;3.50;;;1.10;;
79499;SDS011;76397;53.172;18.140;2024-03-25T13:07:41;2.50;;;0.80;;
79499;SDS011;76397;53.172;18.140;2024-03-25T13:10:08;4.00;;;1.30;;
79499;SDS011;76397;53.172;18.140;2024-03-25T13:12:35;3.40;;;1.10;;
79499;SDS011;76397;53.172;18.140;2024-03-25T13:15:02;3.00;;;1.10;;
79499;SDS011;76397;53.172;18.140;2024-03-25T13:17:29;3.30;;;1.10;;
79499;SDS011;76397;53.172;18.140;2024-03-25T13:19:56;3.20;;;1.20;;
79499;SDS011;76397;53.172;18.140;2024-03-25T13:22:23;3.40;;;1.20;;
79499;SDS011;76397;53.172;18.140;2024-03-25T13:24:50;2.90;;;1.00;;
79499;SDS011;76397;53.172;18.140;2024-03-25T13:27:16;2.80;;;1.00;;
79499;SDS011;76397;53.172;18.140;2024-03-25T13:29:43;2.90;;;0.90;;
79499;SDS011;76397;53.172;18.140;2024-03-25T13:32:10;3.30;;;0.80;;
79499;SDS011;76397;53.172;18.140;2024-03-25T13:34:36;3.30;;;1.20;;
79499;SDS011;76397;53.172;18.140;2024-03-25T13:37:03;3.50;;;1.30;;
79499;SDS011;76397;53.172;18.140;2024-03-25T13:39:30;3.10;;;1.10;;
79499;SDS011;76397;53.172;18.140;2024-03-25T13:41:56;3.70;;;1.40;;
79499;SDS011;76397;53.172;18.140;2024-03-25T13:44:23;4.40;;;1.60;;
79499;SDS011;76397;53.172;18.140;2024-03-25T13:46:50;4.10;;;1.40;;
79499;SDS011;76397;53.172;18.140;2024-03-25T13:49:17;3.90;;;1.50;;
79499;SDS011;76397;53.172;18.140;2024-03-25T13:51:44;4.10;;;1.50;;
79499;SDS011;76397;53.172;18.140;2024-03-25T13:54:11;3.80;;;1.50;;
79499;SDS011;76397;53.172;18.140;2024-03-25T13:56:38;4.10;;;1.40;;
79499;SDS011;76397;53.172;18.140;2024-03-25T13:59:08;4.90;;;1.50;;
79499;SDS011;76397;53.172;18.140;2024-03-25T14:01:35;4.40;;;1.30;;
79499;SDS011;76397;53.172;18.140;2024-03-25T14:04:01;4.90;;;1.70;;
79499;SDS011;76397;53.172;18.140;2024-03-25T14:06:28;5.20;;;2.30;;
79499;SDS011;76397;53.172;18.140;2024-03-25T14:08:54;3.90;;;1.30;;
79499;SDS011;76397;53.172;18.140;2024-03-25T14:11:21;3.50;;;1.20;;
79499;SDS011;76397;53.172;18.140;2024-03-25T14:13:48;5.40;;;1.70;;
79499;SDS011;76397;53.172;18.140;2024-03-25T14:16:14;3.40;;;1.30;;
79499;SDS011;76397;53.172;18.140;2024-03-25T14:18:41;3.70;;;1.30;;
79499;SDS011;76397;53.172;18.140;2024-03-25T14:21:07;3.90;;;1.20;;
79499;SDS011;76397;53.172;18.140;2024-03-25T14:23:34;3.60;;;1.30;;
79499;SDS011;76397;53.172;18.140;2024-03-25T14:26:00;3.40;;;1.20;;
79499;SDS011;76397;53.172;18.140;2024-03-25T14:28:28;3.90;;;1.50;;
79499;SDS011;76397;53.172;18.140;2024-03-25T14:30:54;3.30;;;1.20;;
79499;SDS011;76397;53.172;18.140;2024-03-25T14:33:21;3.80;;;1.20;;
79499;SDS011;76397;53.172;18.140;2024-03-25T14:35:47;3.30;;;1.00;;
79499;SDS011;76397;53.172;18.140;2024-03-25T14:38:14;4.50;;;1.30;;